sensor_id;sensor_type;location;lat;lon;timestamp;pressure;altitude;pressure_sealevel;temperature;humidity
61119;BME280;51448;51.660;5.824;2024-01-27T00:00:13;103390.66;;;3.04;96.00
61119;BME280;51448;51.660;5.824;2024-01-27T00:02:41;103384.59;;;3.02;95.98
61119;BME280;51448;51.660;5.824;2024-01-27T00:05:09;103383.75;;;3.02;95.93
61119;BME280;51448;51.660;5.824;2024-01-27T00:07:37;103391.31;;;3.00;95.83
61119;BME280;51448;51.660;5.824;2024-01-27T00:10:05;103392.34;;;2.99;96.18
61119;BME280;51448;51.660;5.824;2024-01-27T00:12:33;103383.53;;;2.97;96.09
61119;BME280;51448;51.660;5.824;2024-01-27T00:15:00;103387.31;;;2.96;96.19
61119;BME280;51448;51.660;5.824;2024-01-27T00:17:28;103394.00;;;2.93;96.08
61119;BME280;51448;51.660;5.824;2024-01-27T00:19:56;103401.56;;;2.91;96.26
61119;BME280;51448;51.660;5.824;2024-01-27T00:22:23;103403.00;;;2.87;96.34
61119;BME280;51448;51.660;5.824;2024-01-27T00:24:51;103405.09;;;2.85;96.50
61119;BME280;51448;51.660;5.824;2024-01-27T00:27:18;103414.34;;;2.84;96.48
61119;BME280;51448;51.660;5.824;2024-01-27T00:29:46;103418.13;;;2.83;96.41
61119;BME280;51448;51.660;5.824;2024-01-27T00:32:13;103416.22;;;2.83;96.38
61119;BME280;51448;51.660;5.824;2024-01-27T00:34:41;103424.59;;;2.82;96.42
61119;BME280;51448;51.660;5.824;2024-01-27T00:37:08;103416.63;;;2.80;96.39
61119;BME280;51448;51.660;5.824;2024-01-27T00:39:36;103416.84;;;2.79;96.46
61119;BME280;51448;51.660;5.824;2024-01-27T00:42:03;103417.06;;;2.77;96.71
61119;BME280;51448;51.660;5.824;2024-01-27T00:44:31;103412.63;;;2.76;96.36
61119;BME280;51448;51.660;5.824;2024-01-27T00:46:58;103410.94;;;2.75;96.59
61119;BME280;51448;51.660;5.824;2024-01-27T00:49:26;103411.16;;;2.74;96.69
61119;BME280;51448;51.660;5.824;2024-01-27T00:51:54;103414.94;;;2.73;96.88
61119;BME280;51448;51.660;5.824;2024-01-27T00:54:21;103421.41;;;2.72;96.66
61119;BME280;51448;51.660;5.824;2024-01-27T00:56:49;103415.31;;;2.70;96.72
61119;BME280;51448;51.660;5.824;2024-01-27T00:59:16;103416.38;;;2.69;96.83
61119;BME280;51448;51.660;5.824;2024-01-27T01:01:44;103421.00;;;2.68;96.79
61119;BME280;51448;51.660;5.824;2024-01-27T01:04:11;103422.66;;;2.69;97.17
61119;BME280;51448;51.660;5.824;2024-01-27T01:06:40;103426.66;;;2.67;97.18
61119;BME280;51448;51.660;5.824;2024-01-27T01:09:08;103428.94;;;2.63;97.18
61119;BME280;51448;51.660;5.824;2024-01-27T01:11:36;103424.91;;;2.59;97.16
61119;BME280;51448;51.660;5.824;2024-01-27T01:14:06;103418.63;;;2.58;97.10
61119;BME280;51448;51.660;5.824;2024-01-27T01:16:34;103424.09;;;2.58;97.32
61119;BME280;51448;51.660;5.824;2024-01-27T01:19:01;103425.13;;;2.57;97.36
61119;BME280;51448;51.660;5.824;2024-01-27T01:21:29;103419.91;;;2.56;97.46
61119;BME280;51448;51.660;5.824;2024-01-27T01:23:57;103420.72;;;2.56;97.24
61119;BME280;51448;51.660;5.824;2024-01-27T01:26:25;103422.63;;;2.56;97.53
61119;BME280;51448;51.660;5.824;2024-01-27T01:28:52;103417.16;;;2.56;97.64
61119;BME280;51448;51.660;5.824;2024-01-27T01:31:20;103421.13;;;2.53;97.48
61119;BME280;51448;51.660;5.824;2024-01-27T01:33:47;103422.16;;;2.52;97.42
61119;BME280;51448;51.660;5.824;2024-01-27T01:36:16;103420.50;;;2.51;97.60
61119;BME280;51448;51.660;5.824;2024-01-27T01:38:43;103422.16;;;2.52;97.63
61119;BME280;51448;51.660;5.824;2024-01-27T01:41:12;103421.13;;;2.53;97.43
61119;BME280;51448;51.660;5.824;2024-01-27T01:43:39;103422.16;;;2.52;97.55
61119;BME280;51448;51.660;5.824;2024-01-27T01:46:07;103421.53;;;2.50;97.74
61119;BME280;51448;51.660;5.824;2024-01-27T01:48:35;103429.91;;;2.49;97.79
61119;BME280;51448;51.660;5.824;2024-01-27T01:51:03;103433.06;;;2.46;97.85
61119;BME280;51448;51.660;5.824;2024-01-27T01:53:31;103428.81;;;2.43;97.89
61119;BME280;51448;51.660;5.824;2024-01-27T01:55:59;103442.44;;;2.43;98.01
61119;BME280;51448;51.660;5.824;2024-01-27T01:58:26;103437.22;;;2.42;97.97
61119;BME280;51448;51.660;5.824;2024-01-27T02:01:01;103427.53;;;2.39;98.11
61119;BME280;51448;51.660;5.824;2024-01-27T02:03:29;103435.53;;;2.41;98.08
61119;BME280;51448;51.660;5.824;2024-01-27T02:05:56;103429.88;;;2.42;98.29
61119;BME280;51448;51.660;5.824;2024-01-27T02:08:24;103425.47;;;2.41;98.15
61119;BME280;51448;51.660;5.824;2024-01-27T02:10:52;103430.47;;;2.37;98.13
61119;BME280;51448;51.660;5.824;2024-01-27T02:13:23;103432.34;;;2.37;98.05
61119;BME280;51448;51.660;5.824;2024-01-27T02:15:51;103429.19;;;2.33;98.42
61119;BME280;51448;51.660;5.824;2024-01-27T02:18:19;103427.50;;;2.32;98.37
61119;BME280;51448;51.660;5.824;2024-01-27T02:20:48;103427.94;;;2.29;98.25
61119;BME280;51448;51.660;5.824;2024-01-27T02:23:15;103437.16;;;2.28;98.46
61119;BME280;51448;51.660;5.824;2024-01-27T02:25:43;103442.38;;;2.30;98.24
61119;BME280;51448;51.660;5.824;2024-01-27T02:28:11;103438.81;;;2.29;98.60
61119;BME280;51448;51.660;5.824;2024-01-27T02:30:40;103420.81;;;2.28;98.48
61119;BME280;51448;51.660;5.824;2024-01-27T02:33:07;103435.44;;;2.27;98.25
61119;BME280;51448;51.660;5.824;2024-01-27T02:35:35;103445.50;;;2.27;98.58
61119;BME280;51448;51.660;5.824;2024-01-27T02:38:03;103423.91;;;2.25;98.67
61119;BME280;51448;51.660;5.824;2024-01-27T02:40:30;103428.91;;;2.22;98.50
61119;BME280;51448;51.660;5.824;2024-01-27T02:42:58;103438.13;;;2.21;98.55
61119;BME280;51448;51.660;5.824;2024-01-27T02:45:25;103445.47;;;2.20;98.59
61119;BME280;51448;51.660;5.824;2024-01-27T02:47:53;103450.28;;;2.18;98.93
61119;BME280;51448;51.660;5.824;2024-01-27T02:50:21;103448.78;;;2.16;98.79
61119;BME280;51448;51.660;5.824;2024-01-27T02:52:48;103452.56;;;2.15;98.94
61119;BME280;51448;51.660;5.824;2024-01-27T02:55:16;103455.47;;;2.13;98.97
61119;BME280;51448;51.660;5.824;2024-01-27T02:57:43;103451.25;;;2.10;99.15
61119;BME280;51448;51.660;5.824;2024-01-27T03:00:11;103448.53;;;2.10;98.82
61119;BME280;51448;51.660;5.824;2024-01-27T03:02:39;103454.81;;;2.11;99.10
61119;BME280;51448;51.660;5.824;2024-01-27T03:05:07;103445.19;;;2.08;99.12
61119;BME280;51448;51.660;5.824;2024-01-27T03:07:35;103442.66;;;2.07;98.81
61119;BME280;51448;51.660;5.824;2024-01-27T03:10:02;103452.06;;;2.04;99.09
61119;BME280;51448;51.660;5.824;2024-01-27T03:12:30;103437.59;;;2.04;99.08
61119;BME280;51448;51.660;5.824;2024-01-27T03:14:58;103432.34;;;2.02;99.26
61119;BME280;51448;51.660;5.824;2024-01-27T03:17:25;103446.16;;;2.01;99.25
61119;BME280;51448;51.660;5.824;2024-01-27T03:19:53;103439.22;;;1.98;99.31
61119;BME280;51448;51.660;5.824;2024-01-27T03:22:20;103428.56;;;1.97;99.54
61119;BME280;51448;51.660;5.824;2024-01-27T03:24:48;103428.56;;;1.97;99.12
61119;BME280;51448;51.660;5.824;2024-01-27T03:27:15;103431.44;;;1.95;99.20
61119;BME280;51448;51.660;5.824;2024-01-27T03:29:43;103428.09;;;1.93;99.34
61119;BME280;51448;51.660;5.824;2024-01-27T03:32:10;103427.63;;;1.90;99.59
61119;BME280;51448;51.660;5.824;2024-01-27T03:34:43;103436.00;;;1.88;99.63
61119;BME280;51448;51.660;5.824;2024-01-27T03:37:14;103438.94;;;1.87;99.52
61119;BME280;51448;51.660;5.824;2024-01-27T03:39:42;103440.16;;;1.84;99.58
61119;BME280;51448;51.660;5.824;2024-01-27T03:42:10;103440.38;;;1.82;100.00
61119;BME280;51448;51.660;5.824;2024-01-27T03:44:37;103447.69;;;1.82;99.95
61119;BME280;51448;51.660;5.824;2024-01-27T03:47:05;103452.31;;;1.81;99.72
61119;BME280;51448;51.660;5.824;2024-01-27T03:49:32;103443.50;;;1.79;100.00
61119;BME280;51448;51.660;5.824;2024-01-27T03:52:00;103444.97;;;1.82;99.90
61119;BME280;51448;51.660;5.824;2024-01-27T03:54:27;103448.53;;;1.82;99.94
61119;BME280;51448;51.660;5.824;2024-01-27T03:56:55;103453.16;;;1.82;99.91
61119;BME280;51448;51.660;5.824;2024-01-27T03:59:23;103456.69;;;1.82;100.00
61119;BME280;51448;51.660;5.824;2024-01-27T04:01:50;103453.16;;;1.82;99.92
61119;BME280;51448;51.660;5.824;2024-01-27T04:04:18;103459.63;;;1.81;99.91
61119;BME280;51448;51.660;5.824;2024-01-27T04:06:45;103468.19;;;1.78;99.80
61119;BME280;51448;51.660;5.824;2024-01-27T04:09:13;103463.97;;;1.75;99.80
61119;BME280;51448;51.660;5.824;2024-01-27T04:11:41;103464.34;;;1.72;99.48
61119;BME280;51448;51.660;5.824;2024-01-27T04:14:09;103461.84;;;1.71;99.65
61119;BME280;51448;51.660;5.824;2024-01-27T04:16:36;103463.94;;;1.69;99.85
61119;BME280;51448;51.660;5.824;2024-01-27T04:19:04;103465.16;;;1.66;99.75
61119;BME280;51448;51.660;5.824;2024-01-27T04:21:31;103467.03;;;1.66;99.89
61119;BME280;51448;51.660;5.824;2024-01-27T04:23:59;103471.44;;;1.67;99.96
61119;BME280;51448;51.660;5.824;2024-01-27T04:26:27;103465.97;;;1.67;99.84
61119;BME280;51448;51.660;5.824;2024-01-27T04:28:54;103472.47;;;1.66;100.00
61119;BME280;51448;51.660;5.824;2024-01-27T04:31:22;103472.47;;;1.66;99.87
61119;BME280;51448;51.660;5.824;2024-01-27T04:33:50;103467.41;;;1.63;100.00
61119;BME280;51448;51.660;5.824;2024-01-27T04:36:29;103473.50;;;1.65;99.91
61119;BME280;51448;51.660;5.824;2024-01-27T04:38:57;103468.44;;;1.62;99.95
61119;BME280;51448;51.660;5.824;2024-01-27T04:41:25;103469.50;;;1.61;100.00
61119;BME280;51448;51.660;5.824;2024-01-27T04:43:52;103473.25;;;1.60;100.00
61119;BME280;51448;51.660;5.824;2024-01-27T04:46:20;103471.56;;;1.58;99.92
61119;BME280;51448;51.660;5.824;2024-01-27T04:48:48;103469.69;;;1.59;100.00
61119;BME280;51448;51.660;5.824;2024-01-27T04:51:18;103472.22;;;1.61;100.00
61119;BME280;51448;51.660;5.824;2024-01-27T04:53:45;103470.53;;;1.60;100.00
61119;BME280;51448;51.660;5.824;2024-01-27T04:56:13;103463.84;;;1.62;100.00
61119;BME280;51448;51.660;5.824;2024-01-27T04:58:41;103472.22;;;1.61;100.00
61119;BME280;51448;51.660;5.824;2024-01-27T05:01:08;103470.53;;;1.60;100.00
61119;BME280;51448;51.660;5.824;2024-01-27T05:03:36;103462.56;;;1.58;100.00
61119;BME280;51448;51.660;5.824;2024-01-27T05:06:07;103479.91;;;1.57;100.00
61119;BME280;51448;51.660;5.824;2024-01-27T05:08:36;103468.41;;;1.55;100.00
61119;BME280;51448;51.660;5.824;2024-01-27T05:11:04;103463.16;;;1.53;100.00
61119;BME280;51448;51.660;5.824;2024-01-27T05:13:32;103481.38;;;1.53;100.00
61119;BME280;51448;51.660;5.824;2024-01-27T05:15:59;103475.09;;;1.52;100.00
61119;BME280;51448;51.660;5.824;2024-01-27T05:18:27;103472.53;;;1.51;100.00
61119;BME280;51448;51.660;5.824;2024-01-27T05:20:55;103468.97;;;1.50;100.00
61119;BME280;51448;51.660;5.824;2024-01-27T05:23:22;103459.13;;;1.49;100.00
61119;BME280;51448;51.660;5.824;2024-01-27T05:25:50;103456.19;;;1.51;100.00
61119;BME280;51448;51.660;5.824;2024-01-27T05:28:18;103461.84;;;1.49;100.00
61119;BME280;51448;51.660;5.824;2024-01-27T05:30:45;103462.91;;;1.48;100.00
61119;BME280;51448;51.660;5.824;2024-01-27T05:33:13;103456.59;;;1.48;100.00
61119;BME280;51448;51.660;5.824;2024-01-27T05:35:40;103447.97;;;1.44;100.00
61119;BME280;51448;51.660;5.824;2024-01-27T05:38:08;103457.38;;;1.42;100.00
61119;BME280;51448;51.660;5.824;2024-01-27T05:40:36;103448.56;;;1.40;100.00
61119;BME280;51448;51.660;5.824;2024-01-27T05:43:08;103448.75;;;1.38;100.00
61119;BME280;51448;51.660;5.824;2024-01-27T05:45:35;103442.03;;;1.34;100.00
61119;BME280;51448;51.660;5.824;2024-01-27T05:48:04;103444.75;;;1.34;100.00
61119;BME280;51448;51.660;5.824;2024-01-27T05:50:32;103447.94;;;1.38;100.00
61119;BME280;51448;51.660;5.824;2024-01-27T05:53:01;103444.75;;;1.34;100.00
61119;BME280;51448;51.660;5.824;2024-01-27T05:55:29;103452.25;;;1.32;100.00
61119;BME280;51448;51.660;5.824;2024-01-27T05:57:56;103454.16;;;1.31;100.00
61119;BME280;51448;51.660;5.824;2024-01-27T06:00:24;103451.59;;;1.30;100.00
61119;BME280;51448;51.660;5.824;2024-01-27T06:02:52;103450.13;;;1.27;100.00
61119;BME280;51448;51.660;5.824;2024-01-27T06:05:19;103461.19;;;1.26;100.00
61119;BME280;51448;51.660;5.824;2024-01-27T06:07:47;103457.63;;;1.25;100.00
61119;BME280;51448;51.660;5.824;2024-01-27T06:10:16;103455.09;;;1.24;100.00
61119;BME280;51448;51.660;5.824;2024-01-27T06:12:45;103468.06;;;1.22;100.00
61119;BME280;51448;51.660;5.824;2024-01-27T06:15:13;103452.78;;;1.21;100.00
61119;BME280;51448;51.660;5.824;2024-01-27T06:17:42;103454.66;;;1.20;100.00
61119;BME280;51448;51.660;5.824;2024-01-27T06:20:10;103453.81;;;1.20;100.00
61119;BME280;51448;51.660;5.824;2024-01-27T06:22:38;103447.91;;;1.16;100.00
61119;BME280;51448;51.660;5.824;2024-01-27T06:25:07;103457.94;;;1.16;100.00
61119;BME280;51448;51.660;5.824;2024-01-27T06:27:36;103458.16;;;1.14;100.00
61119;BME280;51448;51.660;5.824;2024-01-27T06:30:05;103472.13;;;1.11;100.00
61119;BME280;51448;51.660;5.824;2024-01-27T06:32:33;103471.28;;;1.11;100.00
61119;BME280;51448;51.660;5.824;2024-01-27T06:35:01;103472.13;;;1.11;100.00
61119;BME280;51448;51.660;5.824;2024-01-27T06:37:28;103473.16;;;1.10;100.00
61119;BME280;51448;51.660;5.824;2024-01-27T06:39:56;103463.31;;;1.09;100.00
61119;BME280;51448;51.660;5.824;2024-01-27T06:42:23;103466.69;;;1.11;100.00
61119;BME280;51448;51.660;5.824;2024-01-27T06:44:51;103462.28;;;1.10;100.00
61119;BME280;51448;51.660;5.824;2024-01-27T06:47:19;103462.91;;;1.12;100.00
61119;BME280;51448;51.660;5.824;2024-01-27T06:49:46;103463.97;;;1.11;100.00
61119;BME280;51448;51.660;5.824;2024-01-27T06:52:14;103461.25;;;1.11;100.00
61119;BME280;51448;51.660;5.824;2024-01-27T06:54:41;103466.69;;;1.11;100.00
61119;BME280;51448;51.660;5.824;2024-01-27T06:57:22;103459.34;;;1.12;100.00
61119;BME280;51448;51.660;5.824;2024-01-27T06:59:51;103454.97;;;1.11;100.00
61119;BME280;51448;51.660;5.824;2024-01-27T07:02:26;103463.13;;;1.11;100.00
61119;BME280;51448;51.660;5.824;2024-01-27T07:04:54;103469.41;;;1.11;100.00
61119;BME280;51448;51.660;5.824;2024-01-27T07:07:25;103472.97;;;1.12;100.00
61119;BME280;51448;51.660;5.824;2024-01-27T07:09:55;103472.97;;;1.12;100.00
61119;BME280;51448;51.660;5.824;2024-01-27T07:12:23;103481.13;;;1.12;100.00
61119;BME280;51448;51.660;5.824;2024-01-27T07:14:51;103488.44;;;1.11;100.00
61119;BME280;51448;51.660;5.824;2024-01-27T07:17:23;103492.00;;;1.12;100.00
61119;BME280;51448;51.660;5.824;2024-01-27T07:19:51;103498.06;;;1.14;100.00
61119;BME280;51448;51.660;5.824;2024-01-27T07:22:19;103500.63;;;1.15;100.00
61119;BME280;51448;51.660;5.824;2024-01-27T07:24:46;103507.75;;;1.16;100.00
61119;BME280;51448;51.660;5.824;2024-01-27T07:27:20;103506.91;;;1.16;100.00
61119;BME280;51448;51.660;5.824;2024-01-27T07:29:48;103509.63;;;1.16;100.00
61119;BME280;51448;51.660;5.824;2024-01-27T07:32:15;103509.81;;;1.14;100.00
61119;BME280;51448;51.660;5.824;2024-01-27T07:34:43;103512.53;;;1.14;100.00
61119;BME280;51448;51.660;5.824;2024-01-27T07:37:11;103520.50;;;1.16;100.00
61119;BME280;51448;51.660;5.824;2024-01-27T07:39:39;103520.31;;;1.17;100.00
61119;BME280;51448;51.660;5.824;2024-01-27T07:42:06;103519.25;;;1.18;100.00
61119;BME280;51448;51.660;5.824;2024-01-27T07:44:34;103515.50;;;1.19;100.00
61119;BME280;51448;51.660;5.824;2024-01-27T07:47:02;103520.09;;;1.19;100.00
61119;BME280;51448;51.660;5.824;2024-01-27T07:49:29;103520.78;;;1.21;100.00
61119;BME280;51448;51.660;5.824;2024-01-27T07:51:57;103525.16;;;1.22;100.00
61119;BME280;51448;51.660;5.824;2024-01-27T07:54:24;103533.13;;;1.23;100.00
61119;BME280;51448;51.660;5.824;2024-01-27T07:56:52;103540.44;;;1.23;100.00
61119;BME280;51448;51.660;5.824;2024-01-27T07:59:19;103541.09;;;1.25;100.00
61119;BME280;51448;51.660;5.824;2024-01-27T08:01:47;103530.69;;;1.28;100.00
61119;BME280;51448;51.660;5.824;2024-01-27T08:04:14;103531.72;;;1.27;100.00
61119;BME280;51448;51.660;5.824;2024-01-27T08:06:48;103535.94;;;1.30;100.00
61119;BME280;51448;51.660;5.824;2024-01-27T08:09:17;103542.25;;;1.30;100.00
61119;BME280;51448;51.660;5.824;2024-01-27T08:11:46;103534.72;;;1.33;100.00
61119;BME280;51448;51.660;5.824;2024-01-27T08:14:19;103538.91;;;1.35;100.00
61119;BME280;51448;51.660;5.824;2024-01-27T08:16:47;103537.72;;;1.38;100.00
61119;BME280;51448;51.660;5.824;2024-01-27T08:19:15;103538.16;;;1.41;100.00
61119;BME280;51448;51.660;5.824;2024-01-27T08:21:48;103540.50;;;1.44;100.00
61119;BME280;51448;51.660;5.824;2024-01-27T08:24:15;103538.25;;;1.48;100.00
61119;BME280;51448;51.660;5.824;2024-01-27T08:26:43;103535.78;;;1.53;100.00
61119;BME280;51448;51.660;5.824;2024-01-27T08:29:12;103540.84;;;1.56;100.00
61119;BME280;51448;51.660;5.824;2024-01-27T08:31:39;103529.38;;;1.61;100.00
61119;BME280;51448;51.660;5.824;2024-01-27T08:34:07;103541.75;;;1.63;100.00
61119;BME280;51448;51.660;5.824;2024-01-27T08:36:35;103543.03;;;1.67;100.00
61119;BME280;51448;51.660;5.824;2024-01-27T08:39:03;103538.25;;;1.69;100.00
61119;BME280;51448;51.660;5.824;2024-01-27T08:41:31;103537.84;;;1.72;100.00
61119;BME280;51448;51.660;5.824;2024-01-27T08:43:59;103539.38;;;1.75;100.00
61119;BME280;51448;51.660;5.824;2024-01-27T08:46:26;103538.97;;;1.78;100.00
61119;BME280;51448;51.660;5.824;2024-01-27T08:48:54;103537.53;;;1.82;100.00
61119;BME280;51448;51.660;5.824;2024-01-27T08:51:21;103525.22;;;1.86;100.00
61119;BME280;51448;51.660;5.824;2024-01-27T08:53:49;103513.09;;;1.89;100.00
61119;BME280;51448;51.660;5.824;2024-01-27T08:56:17;103525.91;;;1.95;100.00
61119;BME280;51448;51.660;5.824;2024-01-27T08:58:45;103526.19;;;2.00;100.00
61119;BME280;51448;51.660;5.824;2024-01-27T09:01:18;103521.19;;;2.03;100.00
61119;BME280;51448;51.660;5.824;2024-01-27T09:03:46;103522.88;;;2.04;100.00
61119;BME280;51448;51.660;5.824;2024-01-27T09:06:14;103522.28;;;2.09;100.00
61119;BME280;51448;51.660;5.824;2024-01-27T09:08:42;103530.91;;;2.13;100.00
61119;BME280;51448;51.660;5.824;2024-01-27T09:11:10;103535.94;;;2.16;100.00
61119;BME280;51448;51.660;5.824;2024-01-27T09:13:37;103544.78;;;2.18;100.00
61119;BME280;51448;51.660;5.824;2024-01-27T09:16:05;103553.59;;;2.20;100.00
61119;BME280;51448;51.660;5.824;2024-01-27T09:18:33;103547.94;;;2.21;100.00
61119;BME280;51448;51.660;5.824;2024-01-27T09:21:00;103556.56;;;2.25;100.00
61119;BME280;51448;51.660;5.824;2024-01-27T09:23:28;103556.16;;;2.28;100.00
61119;BME280;51448;51.660;5.824;2024-01-27T09:25:55;103553.69;;;2.33;100.00
61119;BME280;51448;51.660;5.824;2024-01-27T09:28:23;103558.56;;;2.37;100.00
61119;BME280;51448;51.660;5.824;2024-01-27T09:30:51;103555.22;;;2.42;100.00
61119;BME280;51448;51.660;5.824;2024-01-27T09:33:20;103555.47;;;2.47;100.00
61119;BME280;51448;51.660;5.824;2024-01-27T09:35:50;103553.22;;;2.51;100.00
61119;BME280;51448;51.660;5.824;2024-01-27T09:38:18;103558.03;;;2.55;100.00
61119;BME280;51448;51.660;5.824;2024-01-27T09:40:46;103553.50;;;2.62;100.00
61119;BME280;51448;51.660;5.824;2024-01-27T09:43:15;103565.28;;;2.70;100.00
61119;BME280;51448;51.660;5.824;2024-01-27T09:45:46;103567.41;;;2.74;100.00
61119;BME280;51448;51.660;5.824;2024-01-27T09:48:15;103577.50;;;2.80;100.00
61119;BME280;51448;51.660;5.824;2024-01-27T09:50:45;103583.00;;;2.87;100.00
61119;BME280;51448;51.660;5.824;2024-01-27T09:53:15;103579.47;;;2.93;100.00
61119;BME280;51448;51.660;5.824;2024-01-27T09:55:43;103586.44;;;3.02;100.00
61119;BME280;51448;51.660;5.824;2024-01-27T09:58:12;103593.81;;;3.08;100.00
61119;BME280;51448;51.660;5.824;2024-01-27T10:00:41;103590.28;;;3.14;100.00
61119;BME280;51448;51.660;5.824;2024-01-27T10:03:10;103600.00;;;3.24;100.00
61119;BME280;51448;51.660;5.824;2024-01-27T10:05:38;103580.06;;;3.30;100.00
61119;BME280;51448;51.660;5.824;2024-01-27T10:08:08;103586.81;;;3.34;100.00
61119;BME280;51448;51.660;5.824;2024-01-27T10:10:36;103591.91;;;3.43;100.00
61119;BME280;51448;51.660;5.824;2024-01-27T10:13:04;103591.09;;;3.50;100.00
61119;BME280;51448;51.660;5.824;2024-01-27T10:15:31;103587.31;;;3.57;100.00
61119;BME280;51448;51.660;5.824;2024-01-27T10:18:06;103594.28;;;3.66;100.00
61119;BME280;51448;51.660;5.824;2024-01-27T10:20:35;103590.13;;;3.77;100.00
61119;BME280;51448;51.660;5.824;2024-01-27T10:23:12;103588.66;;;3.88;100.00
61119;BME280;51448;51.660;5.824;2024-01-27T10:25:40;103596.66;;;3.96;100.00
61119;BME280;51448;51.660;5.824;2024-01-27T10:28:09;103607.41;;;4.04;100.00
61119;BME280;51448;51.660;5.824;2024-01-27T10:30:37;103602.38;;;4.14;100.00
61119;BME280;51448;51.660;5.824;2024-01-27T10:33:08;103592.72;;;4.25;100.00
61119;BME280;51448;51.660;5.824;2024-01-27T10:35:38;103596.91;;;4.34;100.00
61119;BME280;51448;51.660;5.824;2024-01-27T10:38:05;103594.81;;;4.43;100.00
61119;BME280;51448;51.660;5.824;2024-01-27T10:40:34;103599.03;;;4.52;100.00
61119;BME280;51448;51.660;5.824;2024-01-27T10:43:07;103588.50;;;4.62;100.00
61119;BME280;51448;51.660;5.824;2024-01-27T10:45:37;103592.66;;;4.71;100.00
61119;BME280;51448;51.660;5.824;2024-01-27T10:48:09;103591.41;;;4.81;99.75
61119;BME280;51448;51.660;5.824;2024-01-27T10:50:39;103592.41;;;4.93;99.54
61119;BME280;51448;51.660;5.824;2024-01-27T10:53:22;103588.19;;;5.04;99.50
61119;BME280;51448;51.660;5.824;2024-01-27T10:55:58;103591.09;;;5.15;99.45
61119;BME280;51448;51.660;5.824;2024-01-27T10:58:26;103577.38;;;5.28;98.88
61119;BME280;51448;51.660;5.824;2024-01-27T11:00:56;103581.53;;;5.38;98.37
61119;BME280;51448;51.660;5.824;2024-01-27T11:03:27;103576.00;;;5.51;97.58
61119;BME280;51448;51.660;5.824;2024-01-27T11:05:57;103574.91;;;5.59;96.94
61119;BME280;51448;51.660;5.824;2024-01-27T11:08:26;103562.03;;;5.66;96.79
61119;BME280;51448;51.660;5.824;2024-01-27T11:10:58;103559.84;;;5.74;96.37
61119;BME280;51448;51.660;5.824;2024-01-27T11:13:30;103569.50;;;5.84;95.84
61119;BME280;51448;51.660;5.824;2024-01-27T11:15:59;103564.78;;;5.91;95.52
61119;BME280;51448;51.660;5.824;2024-01-27T11:18:27;103558.47;;;5.97;95.38
61119;BME280;51448;51.660;5.824;2024-01-27T11:20:58;103559.88;;;6.06;95.51
61119;BME280;51448;51.660;5.824;2024-01-27T11:23:33;103554.50;;;6.18;95.04
61119;BME280;51448;51.660;5.824;2024-01-27T11:26:04;103554.44;;;6.24;94.36
61119;BME280;51448;51.660;5.824;2024-01-27T11:28:32;103547.03;;;6.31;93.75
61119;BME280;51448;51.660;5.824;2024-01-27T11:31:03;103556.84;;;6.39;93.40
61119;BME280;51448;51.660;5.824;2024-01-27T11:33:32;103546.66;;;6.46;92.52
61119;BME280;51448;51.660;5.824;2024-01-27T11:36:04;103548.28;;;6.54;92.47
61119;BME280;51448;51.660;5.824;2024-01-27T11:38:32;103557.03;;;6.63;92.46
61119;BME280;51448;51.660;5.824;2024-01-27T11:41:00;103554.03;;;6.71;91.66
61119;BME280;51448;51.660;5.824;2024-01-27T11:43:28;103552.03;;;6.78;91.52
61119;BME280;51448;51.660;5.824;2024-01-27T11:45:57;103546.47;;;6.84;91.01
61119;BME280;51448;51.660;5.824;2024-01-27T11:48:26;103547.47;;;6.90;90.58
61119;BME280;51448;51.660;5.824;2024-01-27T11:51:11;103548.44;;;6.96;90.58
61119;BME280;51448;51.660;5.824;2024-01-27T11:53:39;103544.59;;;7.03;90.23
61119;BME280;51448;51.660;5.824;2024-01-27T11:56:07;103546.16;;;7.11;89.70
61119;BME280;51448;51.660;5.824;2024-01-27T11:58:34;103551.38;;;7.19;89.15
61119;BME280;51448;51.660;5.824;2024-01-27T12:01:02;103542.19;;;7.25;88.84
61119;BME280;51448;51.660;5.824;2024-01-27T12:03:30;103542.09;;;7.32;88.02
61119;BME280;51448;51.660;5.824;2024-01-27T12:05:58;103534.00;;;7.37;88.25
61119;BME280;51448;51.660;5.824;2024-01-27T12:08:26;103533.91;;;7.44;87.07
61119;BME280;51448;51.660;5.824;2024-01-27T12:10:55;103533.84;;;7.50;87.16
61119;BME280;51448;51.660;5.824;2024-01-27T12:13:22;103527.16;;;7.58;87.08
61119;BME280;51448;51.660;5.824;2024-01-27T12:15:50;103531.72;;;7.64;87.12
61119;BME280;51448;51.660;5.824;2024-01-27T12:18:18;103540.72;;;7.71;86.44
61119;BME280;51448;51.660;5.824;2024-01-27T12:20:54;103532.59;;;7.76;85.98
61119;BME280;51448;51.660;5.824;2024-01-27T12:23:24;103528.06;;;7.82;86.08
61119;BME280;51448;51.660;5.824;2024-01-27T12:25:54;103531.56;;;7.89;85.66
61119;BME280;51448;51.660;5.824;2024-01-27T12:28:23;103530.38;;;7.97;86.06
61119;BME280;51448;51.660;5.824;2024-01-27T12:30:52;103524.56;;;8.05;85.58
61119;BME280;51448;51.660;5.824;2024-01-27T12:33:20;103530.78;;;8.12;84.45
61119;BME280;51448;51.660;5.824;2024-01-27T12:35:52;103530.91;;;8.17;83.33
61119;BME280;51448;51.660;5.824;2024-01-27T12:38:22;103531.88;;;8.23;82.89
61119;BME280;51448;51.660;5.824;2024-01-27T12:40:49;103528.41;;;8.27;82.46
61119;BME280;51448;51.660;5.824;2024-01-27T12:43:17;103528.53;;;8.32;82.88
61119;BME280;51448;51.660;5.824;2024-01-27T12:45:44;103523.28;;;8.42;82.67
61119;BME280;51448;51.660;5.824;2024-01-27T12:48:12;103519.34;;;8.50;82.09
61119;BME280;51448;51.660;5.824;2024-01-27T12:50:40;103525.56;;;8.57;80.40
61119;BME280;51448;51.660;5.824;2024-01-27T12:53:07;103531.16;;;8.62;79.03
61119;BME280;51448;51.660;5.824;2024-01-27T12:55:35;103526.28;;;8.64;77.97
61119;BME280;51448;51.660;5.824;2024-01-27T12:58:03;103515.03;;;8.66;76.41
61119;BME280;51448;51.660;5.824;2024-01-27T13:00:30;103515.28;;;8.64;76.90